sensor_id;sensor_type;location;lat;lon;timestamp;pressure;altitude;pressure_sealevel;temperature;humidity
57074;BME280;42957;54.328;18.594;2022-07-12T00:02:05;100956.69;;;13.32;95.49
57074;BME280;42957;54.328;18.594;2022-07-12T00:04:35;100959.38;;;13.29;95.59
57074;BME280;42957;54.328;18.594;2022-07-12T00:07:09;100954.13;;;13.28;95.93
57074;BME280;42957;54.328;18.594;2022-07-12T00:09:41;100946.34;;;13.21;96.28
57074;BME280;42957;54.328;18.594;2022-07-12T00:12:15;100950.66;;;13.25;95.87
57074;BME280;42957;54.328;18.594;2022-07-12T00:14:45;100944.50;;;13.25;96.53
57074;BME280;42957;54.328;18.594;2022-07-12T00:17:15;100942.78;;;13.24;96.89
57074;BME280;42957;54.328;18.594;2022-07-12T00:19:46;100943.63;;;13.24;96.65
57074;BME280;42957;54.328;18.594;2022-07-12T00:22:17;100939.28;;;13.22;97.53
57074;BME280;42957;54.328;18.594;2022-07-12T00:24:52;100941.03;;;13.23;97.36
57074;BME280;42957;54.328;18.594;2022-07-12T00:27:27;100947.16;;;13.23;97.40
57074;BME280;42957;54.328;18.594;2022-07-12T00:29:59;100935.72;;;13.24;98.04
57074;BME280;42957;54.328;18.594;2022-07-12T00:32:28;100936.59;;;13.23;98.07
57074;BME280;42957;54.328;18.594;2022-07-12T00:34:58;100943.63;;;13.24;98.37
57074;BME280;42957;54.328;18.594;2022-07-12T00:37:33;100938.34;;;13.24;98.13
57074;BME280;42957;54.328;18.594;2022-07-12T00:40:05;100936.56;;;13.25;98.04
57074;BME280;42957;54.328;18.594;2022-07-12T00:42:37;100937.53;;;13.22;97.75
57074;BME280;42957;54.328;18.594;2022-07-12T00:45:08;100945.38;;;13.25;97.80
57074;BME280;42957;54.328;18.594;2022-07-12T00:47:40;100947.13;;;13.27;98.34
57074;BME280;42957;54.328;18.594;2022-07-12T00:50:14;100940.22;;;13.19;98.40
57074;BME280;42957;54.328;18.594;2022-07-12T00:53:00;100948.88;;;13.26;98.20
57074;BME280;42957;54.328;18.594;2022-07-12T00:55:33;100945.34;;;13.27;98.39
57074;BME280;42957;54.328;18.594;2022-07-12T00:58:03;100938.28;;;13.28;98.82
57074;BME280;42957;54.328;18.594;2022-07-12T01:00:34;100946.25;;;13.26;99.07
57074;BME280;42957;54.328;18.594;2022-07-12T01:03:05;100948.00;;;13.27;99.15
57074;BME280;42957;54.328;18.594;2022-07-12T01:05:38;100945.31;;;13.29;99.02
57074;BME280;42957;54.328;18.594;2022-07-12T01:08:16;100945.25;;;13.32;99.15
57074;BME280;42957;54.328;18.594;2022-07-12T01:10:46;100934.69;;;13.32;99.63
57074;BME280;42957;54.328;18.594;2022-07-12T01:13:24;100944.31;;;13.37;99.83
57074;BME280;42957;54.328;18.594;2022-07-12T01:15:56;100940.81;;;13.37;99.50
57074;BME280;42957;54.328;18.594;2022-07-12T01:18:29;100937.22;;;13.39;99.80
57074;BME280;42957;54.328;18.594;2022-07-12T01:21:04;100946.88;;;13.40;99.69
57074;BME280;42957;54.328;18.594;2022-07-12T01:23:37;100942.47;;;13.41;99.43
57074;BME280;42957;54.328;18.594;2022-07-12T01:26:12;100944.22;;;13.42;99.82
57074;BME280;42957;54.328;18.594;2022-07-12T01:28:42;100938.06;;;13.41;99.59
57074;BME280;42957;54.328;18.594;2022-07-12T01:31:15;100944.22;;;13.42;99.78
57074;BME280;42957;54.328;18.594;2022-07-12T01:33:45;100934.53;;;13.41;99.51
57074;BME280;42957;54.328;18.594;2022-07-12T01:36:15;100931.91;;;13.41;99.69
57074;BME280;42957;54.328;18.594;2022-07-12T01:38:48;100931.06;;;13.39;99.80
57074;BME280;42957;54.328;18.594;2022-07-12T01:41:20;100932.84;;;13.38;99.45
57074;BME280;42957;54.328;18.594;2022-07-12T01:43:52;100931.16;;;13.36;99.70
57074;BME280;42957;54.328;18.594;2022-07-12T01:46:25;100932.94;;;13.32;99.57
57074;BME280;42957;54.328;18.594;2022-07-12T01:48:57;100932.94;;;13.32;99.97
57074;BME280;42957;54.328;18.594;2022-07-12T01:51:27;100931.25;;;13.30;100.00
57074;BME280;42957;54.328;18.594;2022-07-12T01:54:02;100932.97;;;13.31;100.00
57074;BME280;42957;54.328;18.594;2022-07-12T01:56:34;100930.31;;;13.31;99.88
57074;BME280;42957;54.328;18.594;2022-07-12T01:59:06;100931.25;;;13.30;100.00
57074;BME280;42957;54.328;18.594;2022-07-12T02:01:38;100939.16;;;13.30;100.00
57074;BME280;42957;54.328;18.594;2022-07-12T02:04:09;100933.91;;;13.28;100.00
57074;BME280;42957;54.328;18.594;2022-07-12T02:06:41;100927.72;;;13.29;99.95
57074;BME280;42957;54.328;18.594;2022-07-12T02:09:13;100927.78;;;13.26;100.00
57074;BME280;42957;54.328;18.594;2022-07-12T02:11:45;100926.94;;;13.24;99.94
57074;BME280;42957;54.328;18.594;2022-07-12T02:14:17;100929.63;;;13.22;100.00
57074;BME280;42957;54.328;18.594;2022-07-12T02:16:47;100942.81;;;13.22;100.00
57074;BME280;42957;54.328;18.594;2022-07-12T02:19:20;100936.66;;;13.20;100.00
57074;BME280;42957;54.328;18.594;2022-07-12T02:21:50;100929.69;;;13.19;100.00
57074;BME280;42957;54.328;18.594;2022-07-12T02:24:24;100926.16;;;13.19;100.00
57074;BME280;42957;54.328;18.594;2022-07-12T02:26:55;100922.66;;;13.18;100.00
57074;BME280;42957;54.328;18.594;2022-07-12T02:29:27;100923.50;;;13.19;100.00
57074;BME280;42957;54.328;18.594;2022-07-12T02:31:57;100917.34;;;13.20;100.00
57074;BME280;42957;54.328;18.594;2022-07-12T02:34:28;100913.84;;;13.19;100.00
57074;BME280;42957;54.328;18.594;2022-07-12T02:37:03;100917.31;;;13.21;100.00
57074;BME280;42957;54.328;18.594;2022-07-12T02:39:37;100917.28;;;13.23;100.00
57074;BME280;42957;54.328;18.594;2022-07-12T02:42:07;100920.78;;;13.23;100.00
57074;BME280;42957;54.328;18.594;2022-07-12T02:44:39;100909.38;;;13.21;100.00
57074;BME280;42957;54.328;18.594;2022-07-12T02:47:11;100911.06;;;13.25;100.00
57074;BME280;42957;54.328;18.594;2022-07-12T02:49:42;100906.66;;;13.26;100.00
57074;BME280;42957;54.328;18.594;2022-07-12T02:52:12;100907.53;;;13.27;100.00
57074;BME280;42957;54.328;18.594;2022-07-12T02:54:46;100904.91;;;13.27;100.00
57074;BME280;42957;54.328;18.594;2022-07-12T02:57:16;100907.53;;;13.27;100.00
57074;BME280;42957;54.328;18.594;2022-07-12T02:59:46;100913.69;;;13.27;100.00
57074;BME280;42957;54.328;18.594;2022-07-12T03:02:16;100905.78;;;13.25;100.00
57074;BME280;42957;54.328;18.594;2022-07-12T03:04:47;100904.91;;;13.27;100.00
57074;BME280;42957;54.328;18.594;2022-07-12T03:07:19;100899.59;;;13.28;100.00
57074;BME280;42957;54.328;18.594;2022-07-12T03:09:52;100903.09;;;13.29;100.00
57074;BME280;42957;54.328;18.594;2022-07-12T03:12:22;100899.56;;;13.30;100.00
57074;BME280;42957;54.328;18.594;2022-07-12T03:14:51;100892.53;;;13.29;100.00
57074;BME280;42957;54.328;18.594;2022-07-12T03:17:21;100899.50;;;13.33;100.00
57074;BME280;42957;54.328;18.594;2022-07-12T03:19:52;100901.25;;;13.35;100.00
57074;BME280;42957;54.328;18.594;2022-07-12T03:22:22;100898.53;;;13.38;100.00
57074;BME280;42957;54.328;18.594;2022-07-12T03:24:53;100894.97;;;13.39;100.00
57074;BME280;42957;54.328;18.594;2022-07-12T03:27:26;100891.41;;;13.42;100.00
57074;BME280;42957;54.328;18.594;2022-07-12T03:30:05;100895.78;;;13.45;100.00
57074;BME280;42957;54.328;18.594;2022-07-12T03:32:38;100892.22;;;13.47;100.00
57074;BME280;42957;54.328;18.594;2022-07-12T03:35:09;100891.28;;;13.48;100.00
57074;BME280;42957;54.328;18.594;2022-07-12T03:37:42;100895.53;;;13.55;100.00
57074;BME280;42957;54.328;18.594;2022-07-12T03:40:15;100895.44;;;13.60;100.00
57074;BME280;42957;54.328;18.594;2022-07-12T03:42:48;100896.28;;;13.62;100.00
57074;BME280;42957;54.328;18.594;2022-07-12T03:45:19;100894.38;;;13.69;100.00
57074;BME280;42957;54.328;18.594;2022-07-12T03:47:50;100899.53;;;13.75;100.00
57074;BME280;42957;54.328;18.594;2022-07-12T03:50:20;100894.25;;;13.75;100.00
57074;BME280;42957;54.328;18.594;2022-07-12T03:52:53;100900.22;;;13.83;100.00
57074;BME280;42957;54.328;18.594;2022-07-12T03:55:25;100901.00;;;13.88;100.00
57074;BME280;42957;54.328;18.594;2022-07-12T03:57:55;100892.94;;;13.94;100.00
57074;BME280;42957;54.328;18.594;2022-07-12T04:00:26;100887.50;;;14.01;100.00
57074;BME280;42957;54.328;18.594;2022-07-12T04:02:56;100890.00;;;14.08;100.00
57074;BME280;42957;54.328;18.594;2022-07-12T04:05:25;100890.69;;;14.15;99.56
57074;BME280;42957;54.328;18.594;2022-07-12T04:07:57;100885.28;;;14.21;99.92
57074;BME280;42957;54.328;18.594;2022-07-12T04:10:31;100879.00;;;14.25;99.56
57074;BME280;42957;54.328;18.594;2022-07-12T04:13:03;100878.78;;;14.35;99.10
57074;BME280;42957;54.328;18.594;2022-07-12T04:15:34;100875.16;;;14.39;99.23
57074;BME280;42957;54.328;18.594;2022-07-12T04:18:05;100884.66;;;14.47;98.78
57074;BME280;42957;54.328;18.594;2022-07-12T04:20:36;100883.53;;;14.56;98.33
57074;BME280;42957;54.328;18.594;2022-07-12T04:23:07;100866.75;;;14.57;98.54
57074;BME280;42957;54.328;18.594;2022-07-12T04:25:40;100875.28;;;14.70;97.90
57074;BME280;42957;54.328;18.594;2022-07-12T04:28:15;100863.72;;;14.74;98.05
57074;BME280;42957;54.328;18.594;2022-07-12T04:30:49;100869.59;;;14.86;97.80
57074;BME280;42957;54.328;18.594;2022-07-12T04:33:20;100865.91;;;14.91;97.04
57074;BME280;42957;54.328;18.594;2022-07-12T04:35:49;100875.38;;;15.00;97.18
57074;BME280;42957;54.328;18.594;2022-07-12T04:38:19;100867.22;;;15.08;96.66
57074;BME280;42957;54.328;18.594;2022-07-12T04:40:52;100874.03;;;15.16;96.34
57074;BME280;42957;54.328;18.594;2022-07-12T04:43:23;100871.13;;;15.26;95.78
57074;BME280;42957;54.328;18.594;2022-07-12T04:45:54;100862.03;;;15.34;95.58
57074;BME280;42957;54.328;18.594;2022-07-12T04:48:24;100865.25;;;15.46;95.57
57074;BME280;42957;54.328;18.594;2022-07-12T04:50:55;100864.97;;;15.55;94.92
57074;BME280;42957;54.328;18.594;2022-07-12T04:53:29;100863.88;;;15.62;94.28
57074;BME280;42957;54.328;18.594;2022-07-12T04:56:01;100869.78;;;15.72;94.47
57074;BME280;42957;54.328;18.594;2022-07-12T04:58:33;100865.91;;;15.84;93.62
57074;BME280;42957;54.328;18.594;2022-07-12T05:01:04;100860.44;;;15.89;93.63
57074;BME280;42957;54.328;18.594;2022-07-12T05:03:35;100858.50;;;15.95;92.81
57074;BME280;42957;54.328;18.594;2022-07-12T05:06:05;100861.72;;;16.05;93.00
57074;BME280;42957;54.328;18.594;2022-07-12T05:08:35;100854.69;;;16.04;92.92
57074;BME280;42957;54.328;18.594;2022-07-12T05:11:05;100865.59;;;16.21;92.50
57074;BME280;42957;54.328;18.594;2022-07-12T05:13:34;100854.09;;;16.23;91.29
57074;BME280;42957;54.328;18.594;2022-07-12T05:16:05;100858.16;;;16.33;91.10
57074;BME280;42957;54.328;18.594;2022-07-12T05:18:34;100864.97;;;16.42;90.15
57074;BME280;42957;54.328;18.594;2022-07-12T05:21:03;100877.16;;;16.47;90.28
57074;BME280;42957;54.328;18.594;2022-07-12T05:23:31;100869.78;;;16.55;89.48
57074;BME280;42957;54.328;18.594;2022-07-12T05:26:00;100875.75;;;16.62;89.31
57074;BME280;42957;54.328;18.594;2022-07-12T05:28:30;100877.38;;;16.66;88.59
57074;BME280;42957;54.328;18.594;2022-07-12T05:30:59;100879.94;;;16.69;87.76
57074;BME280;42957;54.328;18.594;2022-07-12T05:33:27;100877.97;;;16.74;87.72
57074;BME280;42957;54.328;18.594;2022-07-12T05:35:56;100876.00;;;16.81;86.89
57074;BME280;42957;54.328;18.594;2022-07-12T05:38:24;100872.31;;;16.85;86.32
57074;BME280;42957;54.328;18.594;2022-07-12T05:40:52;100871.31;;;16.89;85.34
57074;BME280;42957;54.328;18.594;2022-07-12T05:43:21;100868.59;;;16.91;85.53
57074;BME280;42957;54.328;18.594;2022-07-12T05:45:50;100874.59;;;16.96;85.06
57074;BME280;42957;54.328;18.594;2022-07-12T05:48:19;100882.38;;;17.02;85.05
57074;BME280;42957;54.328;18.594;2022-07-12T05:50:47;100868.94;;;17.07;84.13
57074;BME280;42957;54.328;18.594;2022-07-12T05:53:16;100882.94;;;17.11;83.45
57074;BME280;42957;54.328;18.594;2022-07-12T05:55:50;100870.44;;;17.14;83.46
57074;BME280;42957;54.328;18.594;2022-07-12T05:58:19;100881.81;;;17.18;83.27
57074;BME280;42957;54.328;18.594;2022-07-12T06:00:48;100882.63;;;17.20;82.40
57074;BME280;42957;54.328;18.594;2022-07-12T06:03:18;100875.16;;;17.30;82.32
57074;BME280;42957;54.328;18.594;2022-07-12T06:05:46;100863.28;;;17.40;82.05
57074;BME280;42957;54.328;18.594;2022-07-12T06:08:14;100876.97;;;17.53;81.54
57074;BME280;42957;54.328;18.594;2022-07-12T06:10:43;100865.88;;;17.65;81.04
57074;BME280;42957;54.328;18.594;2022-07-12T06:13:11;100870.16;;;17.69;80.38
57074;BME280;42957;54.328;18.594;2022-07-12T06:15:39;100869.78;;;17.78;80.15
57074;BME280;42957;54.328;18.594;2022-07-12T06:18:08;100862.50;;;17.84;79.31
57074;BME280;42957;54.328;18.594;2022-07-12T06:20:38;100863.19;;;17.89;79.49
57074;BME280;42957;54.328;18.594;2022-07-12T06:23:06;100867.19;;;18.01;79.19
57074;BME280;42957;54.328;18.594;2022-07-12T06:25:34;100859.69;;;18.10;79.23
57074;BME280;42957;54.328;18.594;2022-07-12T06:28:11;100863.31;;;18.30;78.43
57074;BME280;42957;54.328;18.594;2022-07-12T06:30:41;100859.28;;;18.42;77.93
57074;BME280;42957;54.328;18.594;2022-07-12T06:33:09;100841.53;;;18.42;77.51
57074;BME280;42957;54.328;18.594;2022-07-12T06:35:39;100854.94;;;18.61;76.69
57074;BME280;42957;54.328;18.594;2022-07-12T06:38:07;100856.47;;;18.67;76.83
57074;BME280;42957;54.328;18.594;2022-07-12T06:40:36;100863.25;;;18.74;76.00
57074;BME280;42957;54.328;18.594;2022-07-12T06:43:08;100859.78;;;18.72;75.03
57074;BME280;42957;54.328;18.594;2022-07-12T06:45:37;100857.38;;;18.66;74.18
57074;BME280;42957;54.328;18.594;2022-07-12T06:48:06;100863.50;;;18.68;73.96
57074;BME280;42957;54.328;18.594;2022-07-12T06:50:35;100867.03;;;18.69;72.93
57074;BME280;42957;54.328;18.594;2022-07-12T06:53:05;100869.63;;;18.70;73.04
57074;BME280;42957;54.328;18.594;2022-07-12T06:55:34;100869.56;;;18.72;72.80
57074;BME280;42957;54.328;18.594;2022-07-12T06:58:03;100870.56;;;18.69;72.35
57074;BME280;42957;54.328;18.594;2022-07-12T07:00:32;100873.16;;;18.71;72.11
57074;BME280;42957;54.328;18.594;2022-07-12T07:03:00;100872.22;;;18.72;71.52
57074;BME280;42957;54.328;18.594;2022-07-12T07:05:28;100862.91;;;18.82;71.87
57074;BME280;42957;54.328;18.594;2022-07-12T07:07:57;100867.06;;;18.89;71.12
57074;BME280;42957;54.328;18.594;2022-07-12T07:10:26;100862.22;;;18.99;70.23
57074;BME280;42957;54.328;18.594;2022-07-12T07:12:55;100869.94;;;19.05;69.96
57074;BME280;42957;54.328;18.594;2022-07-12T07:15:23;100863.53;;;19.09;69.80
57074;BME280;42957;54.328;18.594;2022-07-12T07:17:53;100869.50;;;19.14;69.01
57074;BME280;42957;54.328;18.594;2022-07-12T07:20:21;100863.47;;;19.11;68.26
57074;BME280;42957;54.328;18.594;2022-07-12T07:22:50;100876.72;;;19.12;67.10
57074;BME280;42957;54.328;18.594;2022-07-12T07:25:19;100849.34;;;19.09;66.39
57074;BME280;42957;54.328;18.594;2022-07-12T07:27:48;100865.50;;;19.25;65.90
57074;BME280;42957;54.328;18.594;2022-07-12T07:30:16;100865.94;;;19.34;63.68
57074;BME280;42957;54.328;18.594;2022-07-12T07:33:03;100851.91;;;19.50;64.34
57074;BME280;42957;54.328;18.594;2022-07-12T07:35:31;100857.03;;;19.74;64.56
57074;BME280;42957;54.328;18.594;2022-07-12T07:37:59;100860.56;;;19.93;64.90
57074;BME280;42957;54.328;18.594;2022-07-12T07:40:28;100870.34;;;20.12;63.17
57074;BME280;42957;54.328;18.594;2022-07-12T07:42:58;100857.31;;;20.06;62.93
57074;BME280;42957;54.328;18.594;2022-07-12T07:45:26;100862.94;;;19.99;62.90
57074;BME280;42957;54.328;18.594;2022-07-12T07:47:55;100864.19;;;19.92;62.40
57074;BME280;42957;54.328;18.594;2022-07-12T07:50:43;100862.22;;;19.77;61.74
57074;BME280;42957;54.328;18.594;2022-07-12T07:53:12;100859.47;;;19.59;60.84
57074;BME280;42957;54.328;18.594;2022-07-12T07:55:41;100863.94;;;19.59;61.06
57074;BME280;42957;54.328;18.594;2022-07-12T07:58:11;100863.06;;;19.58;60.95
57074;BME280;42957;54.328;18.594;2022-07-12T08:00:39;100867.09;;;19.67;60.72
57074;BME280;42957;54.328;18.594;2022-07-12T08:03:08;100856.69;;;19.81;60.51
57074;BME280;42957;54.328;18.594;2022-07-12T08:05:36;100857.81;;;19.95;60.33
57074;BME280;42957;54.328;18.594;2022-07-12T08:08:05;100858.34;;;20.20;59.57
57074;BME280;42957;54.328;18.594;2022-07-12T08:10:33;100846.91;;;20.36;58.69
57074;BME280;42957;54.328;18.594;2022-07-12T08:13:01;100866.38;;;20.55;58.89
57074;BME280;42957;54.328;18.594;2022-07-12T08:15:31;100859.34;;;20.72;58.04
57074;BME280;42957;54.328;18.594;2022-07-12T08:18:00;100858.31;;;20.75;57.02
57074;BME280;42957;54.328;18.594;2022-07-12T08:20:29;100857.97;;;20.63;56.48
57074;BME280;42957;54.328;18.594;2022-07-12T08:23:15;100852.47;;;20.68;56.77
57074;BME280;42957;54.328;18.594;2022-07-12T08:25:43;100847.56;;;20.76;56.76
57074;BME280;42957;54.328;18.594;2022-07-12T08:28:11;100847.09;;;20.85;55.34
57074;BME280;42957;54.328;18.594;2022-07-12T08:30:41;100843.94;;;20.95;55.50
57074;BME280;42957;54.328;18.594;2022-07-12T08:33:14;100855.00;;;21.04;55.69
57074;BME280;42957;54.328;18.594;2022-07-12T08:35:43;100848.72;;;21.21;56.12
57074;BME280;42957;54.328;18.594;2022-07-12T08:38:11;100838.94;;;21.22;55.09
57074;BME280;42957;54.328;18.594;2022-07-12T08:40:41;100862.97;;;21.22;54.29
57074;BME280;42957;54.328;18.594;2022-07-12T08:43:09;100866.13;;;21.13;54.48
57074;BME280;42957;54.328;18.594;2022-07-12T08:45:38;100849.97;;;20.98;53.71
57074;BME280;42957;54.328;18.594;2022-07-12T08:48:08;100843.84;;;20.96;53.93
57074;BME280;42957;54.328;18.594;2022-07-12T08:50:37;100848.69;;;21.05;54.86
57074;BME280;42957;54.328;18.594;2022-07-12T08:53:12;100849.53;;;21.23;54.12
57074;BME280;42957;54.328;18.594;2022-07-12T08:55:41;100848.69;;;21.39;53.75
57074;BME280;42957;54.328;18.594;2022-07-12T08:58:16;100850.78;;;21.50;52.97
57074;BME280;42957;54.328;18.594;2022-07-12T09:00:46;100839.19;;;21.49;52.08
57074;BME280;42957;54.328;18.594;2022-07-12T09:03:18;100836.47;;;21.51;52.49
57074;BME280;42957;54.328;18.594;2022-07-12T09:05:49;100843.06;;;21.61;52.63
57074;BME280;42957;54.328;18.594;2022-07-12T09:08:24;100828.31;;;21.70;52.52
57074;BME280;42957;54.328;18.594;2022-07-12T09:10:56;100821.59;;;21.79;52.02
57074;BME280;42957;54.328;18.594;2022-07-12T09:13:47;100833.81;;;21.67;50.86
57074;BME280;42957;54.328;18.594;2022-07-12T09:16:18;100837.88;;;21.58;50.98
57074;BME280;42957;54.328;18.594;2022-07-12T09:18:48;100832.28;;;21.63;51.35
57074;BME280;42957;54.328;18.594;2022-07-12T09:21:21;100829.09;;;21.72;50.39
57074;BME280;42957;54.328;18.594;2022-07-12T09:23:54;100835.03;;;21.77;50.22
57074;BME280;42957;54.328;18.594;2022-07-12T09:26:24;100828.13;;;21.89;50.92
57074;BME280;42957;54.328;18.594;2022-07-12T09:28:52;100819.31;;;21.87;50.58
57074;BME280;42957;54.328;18.594;2022-07-12T09:31:20;100826.06;;;21.78;50.64
57074;BME280;42957;54.328;18.594;2022-07-12T09:34:03;100819.22;;;21.88;50.29
57074;BME280;42957;54.328;18.594;2022-07-12T09:36:55;100838.28;;;21.98;51.10
57074;BME280;42957;54.328;18.594;2022-07-12T09:39:24;100825.94;;;22.11;50.39
57074;BME280;42957;54.328;18.594;2022-07-12T09:41:54;100817.53;;;22.18;50.05
57074;BME280;42957;54.328;18.594;2022-07-12T09:44:24;100820.06;;;22.21;48.84
57074;BME280;42957;54.328;18.594;2022-07-12T09:46:53;100818.22;;;22.21;48.98
57074;BME280;42957;54.328;18.594;2022-07-12T09:49:24;100808.09;;;22.26;49.29
57074;BME280;42957;54.328;18.594;2022-07-12T09:51:54;100810.88;;;22.25;48.83
57074;BME280;42957;54.328;18.594;2022-07-12T09:54:26;100798.38;;;22.25;48.38
57074;BME280;42957;54.328;18.594;2022-07-12T09:56:59;100802.50;;;22.31;48.71
57074;BME280;42957;54.328;18.594;2022-07-12T09:59:29;100803.59;;;22.43;49.53
57074;BME280;42957;54.328;18.594;2022-07-12T10:01:59;100798.28;;;22.57;48.65
57074;BME280;42957;54.328;18.594;2022-07-12T10:04:35;100802.59;;;22.74;48.45
57074;BME280;42957;54.328;18.594;2022-07-12T10:07:04;100808.75;;;22.76;49.55
57074;BME280;42957;54.328;18.594;2022-07-12T10:09:33;100815.03;;;22.75;49.28
57074;BME280;42957;54.328;18.594;2022-07-12T10:12:02;100813.06;;;22.79;47.67
57074;BME280;42957;54.328;18.594;2022-07-12T10:14:38;100814.31;;;22.88;48.35
57074;BME280;42957;54.328;18.594;2022-07-12T10:17:07;100808.38;;;22.97;47.12
57074;BME280;42957;54.328;18.594;2022-07-12T10:19:39;100827.41;;;22.92;46.44
57074;BME280;42957;54.328;18.594;2022-07-12T10:22:18;100810.53;;;22.90;47.16
57074;BME280;42957;54.328;18.594;2022-07-12T10:24:51;100825.69;;;22.91;47.27
57074;BME280;42957;54.328;18.594;2022-07-12T10:27:29;100821.19;;;23.06;45.98
57074;BME280;42957;54.328;18.594;2022-07-12T10:30:18;100819.56;;;23.47;46.34
57074;BME280;42957;54.328;18.594;2022-07-12T10:32:49;100813.44;;;24.14;45.24
57074;BME280;42957;54.328;18.594;2022-07-12T10:35:21;100810.03;;;24.78;44.18
57074;BME280;42957;54.328;18.594;2022-07-12T10:38:16;100809.00;;;25.80;43.73
57074;BME280;42957;54.328;18.594;2022-07-12T10:40:46;100805.53;;;26.51;41.70
57074;BME280;42957;54.328;18.594;2022-07-12T10:43:26;100794.34;;;27.02;38.99
57074;BME280;42957;54.328;18.594;2022-07-12T10:46:23;100798.50;;;27.40;38.56
57074;BME280;42957;54.328;18.594;2022-07-12T10:49:24;100795.06;;;27.93;37.61
57074;BME280;42957;54.328;18.594;2022-07-12T10:52:17;100795.56;;;27.98;37.10
57074;BME280;42957;54.328;18.594;2022-07-12T10:55:15;100800.41;;;28.16;37.12
57074;BME280;42957;54.328;18.594;2022-07-12T10:57:44;100786.03;;;28.15;35.19
57074;BME280;42957;54.328;18.594;2022-07-12T11:00:14;100786.72;;;28.29;35.59
57074;BME280;42957;54.328;18.594;2022-07-12T11:02:44;100797.97;;;28.55;35.08
57074;BME280;42957;54.328;18.594;2022-07-12T11:05:13;100787.97;;;28.67;34.33
57074;BME280;42957;54.328;18.594;2022-07-12T11:07:43;100813.03;;;28.69;33.74
57074;BME280;42957;54.328;18.594;2022-07-12T11:10:12;100797.53;;;28.71;32.68
57074;BME280;42957;54.328;18.594;2022-07-12T11:12:41;100799.97;;;28.74;32.60
57074;BME280;42957;54.328;18.594;2022-07-12T11:15:10;100795.09;;;28.68;32.08
57074;BME280;42957;54.328;18.594;2022-07-12T11:17:40;100794.00;;;28.71;31.96
57074;BME280;42957;54.328;18.594;2022-07-12T11:20:10;100795.16;;;28.78;32.08
57074;BME280;42957;54.328;18.594;2022-07-12T11:22:40;100801.56;;;29.08;30.91
57074;BME280;42957;54.328;18.594;2022-07-12T11:25:11;100805.63;;;28.92;31.29
57074;BME280;42957;54.328;18.594;2022-07-12T11:27:40;100804.53;;;29.04;31.70
57074;BME280;42957;54.328;18.594;2022-07-12T11:30:09;100782.63;;;29.08;31.42
57074;BME280;42957;54.328;18.594;2022-07-12T11:32:38;100796.75;;;29.21;31.71
57074;BME280;42957;54.328;18.594;2022-07-12T11:35:20;100793.00;;;29.33;30.28
57074;BME280;42957;54.328;18.594;2022-07-12T11:37:52;100796.91;;;29.19;30.80
57074;BME280;42957;54.328;18.594;2022-07-12T11:40:25;100796.28;;;29.06;31.04
57074;BME280;42957;54.328;18.594;2022-07-12T11:42:55;100794.34;;;28.87;30.93
57074;BME280;42957;54.328;18.594;2022-07-12T11:45:27;100789.47;;;28.60;31.08
57074;BME280;42957;54.328;18.594;2022-07-12T11:47:59;100780.78;;;28.35;31.56
57074;BME280;42957;54.328;18.594;2022-07-12T11:50:29;100789.66;;;27.93;31.90
57074;BME280;42957;54.328;18.594;2022-07-12T11:53:02;100776.97;;;28.16;31.73
57074;BME280;42957;54.328;18.594;2022-07-12T11:55:41;100780.31;;;28.30;32.57
57074;BME280;42957;54.328;18.594;2022-07-12T11:58:12;100789.94;;;28.44;32.21
57074;BME280;42957;54.328;18.594;2022-07-12T12:00:41;100780.97;;;28.64;31.96
57074;BME280;42957;54.328;18.594;2022-07-12T12:03:10;100776.31;;;28.66;31.97
57074;BME280;42957;54.328;18.594;2022-07-12T12:05:39;100783.25;;;28.90;30.59
57074;BME280;42957;54.328;18.594;2022-07-12T12:08:08;100782.84;;;28.95;31.13
57074;BME280;42957;54.328;18.594;2022-07-12T12:10:41;100797.53;;;29.02;31.30
57074;BME280;42957;54.328;18.594;2022-07-12T12:13:15;100788.44;;;28.72;31.08
57074;BME280;42957;54.328;18.594;2022-07-12T12:15:49;100792.69;;;28.11;31.47
57074;BME280;42957;54.328;18.594;2022-07-12T12:18:30;100785.69;;;27.65;32.70
57074;BME280;42957;54.328;18.594;2022-07-12T12:21:01;100777.66;;;28.18;32.20
57074;BME280;42957;54.328;18.594;2022-07-12T12:23:29;100792.06;;;28.40;31.92
57074;BME280;42957;54.328;18.594;2022-07-12T12:26:13;100772.66;;;28.35;30.63
57074;BME280;42957;54.328;18.594;2022-07-12T12:28:44;100778.97;;;28.45;30.36
57074;BME280;42957;54.328;18.594;2022-07-12T12:31:14;100790.00;;;28.53;30.58
57074;BME280;42957;54.328;18.594;2022-07-12T12:33:44;100788.44;;;28.72;31.04
57074;BME280;42957;54.328;18.594;2022-07-12T12:36:14;100798.16;;;28.84;30.91
57074;BME280;42957;54.328;18.594;2022-07-12T12:38:43;100786.72;;;29.02;30.62
57074;BME280;42957;54.328;18.594;2022-07-12T12:41:14;100798.81;;;29.29;30.16
57074;BME280;42957;54.328;18.594;2022-07-12T12:43:44;100784.09;;;29.62;29.72
57074;BME280;42957;54.328;18.594;2022-07-12T12:46:20;100779.72;;;29.90;29.74
57074;BME280;42957;54.328;18.594;2022-07-12T12:48:49;100789.72;;;29.90;29.18
57074;BME280;42957;54.328;18.594;2022-07-12T12:51:18;100778.00;;;30.09;29.75
57074;BME280;42957;54.328;18.594;2022-07-12T12:53:54;100771.88;;;29.97;29.38
57074;BME280;42957;54.328;18.594;2022-07-12T12:56:25;100778.53;;;29.73;29.57
57074;BME280;42957;54.328;18.594;2022-07-12T12:58:53;100774.59;;;29.87;29.31
57074;BME280;42957;54.328;18.594;2022-07-12T13:01:22;100768.31;;;30.06;29.32